M I D A S
Marine Information and Data Acquisition System
Tripno 552 of the Zeeleeuw from 2003-08-20 07:26:36 to 2003-08-20 14:04:50
Back to CruiseResearch ActivitiesStationsMapUnderway DataData graphs

EquipmentUnitsComments
TimeDGPSUTC
LatitudeDGPSDM.mWGS84
LongitudeDGPSDM.mWGS84
SpeedMeteo Stationm/sRelative wind speed
DirectionMeteo StationdegRelative wind direction
TemperatureMeteo Stationdeg CelciusAir temperature
PressureMeteo StationPaAtmospheric pressure
HumidityMeteo Station%Relative humidity
Missing or incorrect values are displayed as -999
Metereological data collected by the RV Zeeleeuw from 2003-08-20 07:26:36 to 2003-08-20 14:04:50
Time Latitude Longitude Speed Direction Temperature Pressure Humidity
2003-08-20 07:27 51°11.37 2°45.87 8.1 356 18.5 102060 64
2003-08-20 07:28 51°11.28 2°45.55 7.7 357 18.5 102060 65
2003-08-20 07:29 51°11.18 2°45.23 7.9 355 18.5 102070 65
2003-08-20 07:30 51°11.09 2°44.92 7.9 357 18.5 102060 67
2003-08-20 07:31 51°10.99 2°44.6 8.1 360 18.4 102060 66
2003-08-20 07:32 51°10.9 2°44.27 7.9 354 18.4 102060 66
2003-08-20 07:33 51°10.83 2°43.94 7.8 351 18.4 102060 67
2003-08-20 07:34 51°10.77 2°43.59 7.5 352 18.4 102060 66
2003-08-20 07:35 51°10.79 2°43.25 6.6 353 18.4 102060 64
2003-08-20 07:36 51°10.87 2°42.91 6.8 354 18.5 102060 65
2003-08-20 07:37 51°10.94 2°42.58 7 353 18.5 102060 65
2003-08-20 07:38 51°10.99 2°42.23 7 352 18.6 102060 67
2003-08-20 07:39 51°11.03 2°41.89 7.4 355 18.7 102060 67
2003-08-20 07:40 51°10.92 2°41.6 7.8 357 18.6 102050 67
2003-08-20 07:41 51°10.78 2°41.33 8.4 359 18.6 102060 66
2003-08-20 07:42 51°10.64 2°41.06 7.9 354 18.6 102060 66
2003-08-20 07:43 51°10.5 2°40.79 7.9 356 18.6 102060 67
2003-08-20 07:44 51°10.35 2°40.52 8.3 2 18.6 102050 67
2003-08-20 07:45 51°10.21 2°40.26 8.2 359 18.5 102050 66
2003-08-20 07:46 51°10.06 2°39.99 8.4 2 18.6 102060 66
2003-08-20 07:47 51°9.92 2°39.71 8.1   18.6 102060 66
2003-08-20 07:48 51°9.8 2°39.42 8 358 18.6 102060 65
2003-08-20 07:49 51°9.78 2°39.07 7.6 358 18.6 102060 66
2003-08-20 07:50 51°9.88 2°38.75 7.1 355 18.7 102060 66
2003-08-20 07:51 51°10.01 2°38.45 7.2   18.8 102060 67
2003-08-20 07:52 51°10.1 2°38.13 6.9 4 18.8 102070 65
2003-08-20 07:53 51°10.03 2°37.8 8.1 7 18.9 102060 63
2003-08-20 07:54 51°9.91 2°37.51 7.4 11 18.9 102060 60
2003-08-20 07:55 51°9.76 2°37.24 7.6 3 19 102070 59
2003-08-20 07:56 51°9.62 2°36.96 8.2 1 19.1 102070 59
2003-08-20 07:57 51°9.48 2°36.69 7.9 5 19.2 102070 61
2003-08-20 07:58 51°9.35 2°36.4 8.1 5 19.2 102070 59
2003-08-20 07:59 51°9.28 2°36.06 7 11 19.2 102080 59
2003-08-20 08:00 51°9.3 2°35.85 3.8 10 19.2 102090 58
2003-08-20 08:01 51°9.34 2°35.76 1.5 6 19.3 102090 56
2003-08-20 08:02 51°9.36 2°35.75 1.7 329 19.4 102090 56
2003-08-20 08:03 51°9.38 2°35.74 1.4 348 19.6 102090 56
2003-08-20 08:04 51°9.39 2°35.74 1.2 326 19.7 102090 55
2003-08-20 08:05 51°9.41 2°35.75 1.1 337 19.8 102100 55
2003-08-20 08:06 51°9.44 2°35.77 1.7 329 20 102090 55
2003-08-20 08:07 51°9.47 2°35.79 2 343 20 102090 53
2003-08-20 08:08 51°9.5 2°35.83 1.7 326 20.1 102090 53
2003-08-20 08:09 51°9.52 2°35.87 1.1 323 20.2 102100 53
2003-08-20 08:10 51°9.53 2°35.9 1.1 322 20.3 102100 52
2003-08-20 08:11 51°9.54 2°35.94 0.7 314 20.5 102100 52
2003-08-20 08:12 51°9.54 2°35.98 0.5 313 20.6 102100 52
2003-08-20 08:13 51°9.54 2°36.01 0.2 313 20.8 102100 51
2003-08-20 08:14 51°9.53 2°36.04 0.4 309 21 102100 51
2003-08-20 08:15 51°9.52 2°36.07 0.3 308 21.2 102100 50
2003-08-20 08:16 51°9.5 2°36.1   308 21.4 102100 49
2003-08-20 08:17 51°9.48 2°36.11   308 21.5 102100 48
2003-08-20 08:18 51°9.46 2°36.11 0.2 309 21.7 102100 48
2003-08-20 08:19 51°9.44 2°36.1 0.8 94 21.9 102100 47
2003-08-20 08:20 51°9.42 2°36.08 0.9 81 21.9 102100 47
2003-08-20 08:21 51°9.41 2°36.05 2 45 21.6 102110 48
2003-08-20 08:22 51°9.41 2°36.02 1.8 44 21.1 102100 50
2003-08-20 08:23 51°9.41 2°35.97 3.2 8 20.6 102110 51
2003-08-20 08:24 51°9.51 2°35.81 7.7 5 20.3 102100 52
2003-08-20 08:25 51°9.68 2°35.62 7.6 4 20 102100 52
2003-08-20 08:26 51°9.88 2°35.43 8.3 5 19.8 102100 54
2003-08-20 08:27 51°10.08 2°35.24 9 6 19.7 102100 55
2003-08-20 08:28 51°10.3 2°35.19 8.3 355 19.7 102110 55
2003-08-20 08:29 51°10.48 2°35.39 7.3 352 19.7 102110 56
2003-08-20 08:30 51°10.63 2°35.64 7.5 353 19.8 102100 57
2003-08-20 08:31 51°10.79 2°35.9 7.1 352 19.8 102110 56
2003-08-20 08:32 51°10.95 2°36.16 7.2 351 19.7 102110 55
2003-08-20 08:33 51°11.11 2°36.42 6.6 349 19.7 102110 55
2003-08-20 08:34 51°11.26 2°36.68 6.5 349 19.7 102110 55
2003-08-20 08:35 51°11.42 2°36.93 6.9 350 19.8 102100 56
2003-08-20 08:36 51°11.58 2°37.19 7.6 349 19.8 102110 55
2003-08-20 08:37 51°11.74 2°37.45 6.3 348 19.7 102110 56
2003-08-20 08:38 51°11.89 2°37.71 6.8 352 19.8 102110 55
2003-08-20 08:39 51°12.05 2°37.97 6.7 354 19.8 102110 56
2003-08-20 08:40 51°12.25 2°38.15 7.6 1 19.8 102120 55
2003-08-20 08:41 51°12.46 2°38.29 8.5 354 19.7 102110 56
2003-08-20 08:42 51°12.67 2°38.41 7.5 355 19.7 102110 55
2003-08-20 08:43 51°12.88 2°38.53 7.6 355 19.6 102110 55
2003-08-20 08:44 51°13.1 2°38.65 8.4 355 19.6 102110 56
2003-08-20 08:45 51°13.31 2°38.77 7.4 357 19.6 102110 56
2003-08-20 08:46 51°13.52 2°38.89 7.8 352 19.6 102110 56
2003-08-20 08:47 51°13.74 2°38.96 7.9 352 19.6 102100 56
2003-08-20 08:48 51°13.97 2°38.96 9.3 360 19.6 102110 58
2003-08-20 08:49 51°14.16 2°38.78 9 7 19.6 102100 58
2003-08-20 08:50 51°14.24 2°38.45 8.9 19 19.6 102100 59
2003-08-20 08:51 51°14.18 2°38.09 8.6 22 19.5 102100 59
2003-08-20 08:52 51°14.09 2°37.75 7.6 24 19.5 102110 59
2003-08-20 08:53 51°13.99 2°37.41 8.9 25 19.5 102110 60
2003-08-20 08:54 51°13.9 2°37.06 7.8 21 19.5 102110 60
2003-08-20 08:55 51°13.8 2°36.72 8.6 22 19.5 102110 59
2003-08-20 08:56 51°13.71 2°36.37 9 22 19.5 102110 59
2003-08-20 08:57 51°13.62 2°36.03 8.6 24 19.5 102110 59
2003-08-20 08:58 51°13.53 2°35.68 8.8 21 19.5 102110 59
2003-08-20 08:59 51°13.44 2°35.34 8.9 20 19.5 102110 60
2003-08-20 09:00 51°13.34 2°35 7.8 25 19.4 102110 59
2003-08-20 09:01 51°13.26 2°34.66 8.7 22 19.4 102120 59
2003-08-20 09:02 51°13.17 2°34.32 8.9 26 19.4 102110 59
2003-08-20 09:03 51°13.07 2°34.09 2.8 48 19.4 102120 60
2003-08-20 09:04 51°13 2°34.1 0.8 194 19.3 102130 59
2003-08-20 09:05 51°13 2°34.09 1.3 185 19.3 102130 60
2003-08-20 09:06 51°12.99 2°34.09 1.3 164 19.5 102130 59
2003-08-20 09:07 51°12.95 2°34.12 1.2 84 19.5 102130 59
2003-08-20 09:08 51°12.88 2°34.13 1.3 78 19.5 102130 58
2003-08-20 09:09 51°12.83 2°34.11 1.6 110 19.5 102130 60
2003-08-20 09:10 51°12.79 2°34.08 1.9 122 19.5 102130 60
2003-08-20 09:11 51°12.72 2°34.12 0.7 258 19.5 102120 59
2003-08-20 09:12 51°12.72 2°34.23 4.1 312 19.6 102120 59
2003-08-20 09:13 51°12.78 2°34.29 5.4 339 19.7 102120 58
2003-08-20 09:14 51°12.87 2°34.21 7.1 8 19.6 102120 57
2003-08-20 09:15 51°12.94 2°34.11 2.7 342 19.6 102120 59
2003-08-20 09:16 51°12.95 2°34.09 2.4 319 19.6 102120 59
2003-08-20 09:17 51°12.95 2°34.07 3.7 303 19.7 102130 60
2003-08-20 09:18 51°12.95 2°34.06 3.3 291 19.7 102130 58
2003-08-20 09:19 51°12.96 2°34.05 3.1 278 19.6 102130 58
2003-08-20 09:20 51°12.96 2°34.05 2.6 275 19.6 102130 59
2003-08-20 09:21 51°12.96 2°34.04 3.5 274 19.6 102130 60
2003-08-20 09:22 51°12.96 2°34.03 3.6 265 19.6 102130 59
2003-08-20 09:23 51°12.96 2°34.02 2.5 261 19.5 102130 58
2003-08-20 09:24 51°12.96 2°34.02 2.3 251 19.4 102130 59
2003-08-20 09:25 51°12.96 2°34.04 2.6 226 19.4 102130 61
2003-08-20 09:26 51°12.96 2°34.06 1.6 217 19.4 102130 60
2003-08-20 09:27 51°12.94 2°34.08 1.5 180 19.4 102130 60
2003-08-20 09:28 51°12.92 2°34.08 2.9 161 19.5 102130 59
2003-08-20 09:29 51°12.9 2°34.07 2.4 155 19.5 102130 60
2003-08-20 09:30 51°12.88 2°34.07 1.4 170 19.4 102130 59
2003-08-20 09:31 51°12.86 2°34.06 2.6 157 19.4 102130 60
2003-08-20 09:32 51°12.85 2°34.05 2.3 165 19.3 102130 60
2003-08-20 09:33 51°12.83 2°34.04 2.9 138 19.3 102130 60
2003-08-20 09:34 51°12.81 2°34.02 2.6 137 19.2 102130 59
2003-08-20 09:35 51°12.8 2°34 3 109 19.3 102130 61
2003-08-20 09:36 51°12.79 2°33.98 2.8 111 19.3 102130 62
2003-08-20 09:37 51°12.78 2°33.95 3.4 103 19.4 102130 63
2003-08-20 09:38 51°12.77 2°33.93 3.5 101 19.4 102130 60
2003-08-20 09:39 51°12.76 2°33.91 3 83 19.4 102130 61
2003-08-20 09:40 51°12.72 2°33.76 7.5 30 19.3 102120 59
2003-08-20 09:41 51°12.63 2°33.43 9.1 27 19.2 102120 62
2003-08-20 09:42 51°12.54 2°33.08 8.4 29 19.2 102120 61
2003-08-20 09:43 51°12.45 2°32.73 8.5 32 19.2 102120 60
2003-08-20 09:44 51°12.36 2°32.38 9.1 32 19.2 102110 61
2003-08-20 09:45 51°12.27 2°32.04 8.5 26 19.1 102110 61
2003-08-20 09:46 51°12.18 2°31.69 8.3 29 19.1 102110 61
2003-08-20 09:47 51°12.09 2°31.35 8 30 19 102120 61
2003-08-20 09:48 51°11.99 2°31 8.9 32 19 102120 61
2003-08-20 09:49 51°11.9 2°30.65 8.6 35 18.9 102120 62
2003-08-20 09:50 51°11.81 2°30.31 9.3 36 18.9 102110 62
2003-08-20 09:51 51°11.72 2°29.95 10.1 34 18.8 102120 63
2003-08-20 09:52 51°11.62 2°29.6 9.1 35 18.8 102110 63
2003-08-20 09:53 51°11.53 2°29.25 9.4 33 18.7 102110 62
2003-08-20 09:54 51°11.44 2°28.89 9 31 18.7 102110 63
2003-08-20 09:55 51°11.34 2°28.54 9.6 38 18.7 102110 62
2003-08-20 09:56 51°11.25 2°28.18 10.4 38 18.7 102100 65
2003-08-20 09:57 51°11.16 2°27.81 9.4 34 18.6 102100 62
2003-08-20 09:58 51°11.07 2°27.45 9.8 36 18.7 102110 64
2003-08-20 09:59 51°10.98 2°27.09 9.3 40 18.6 102110 64
2003-08-20 10:00 51°10.88 2°26.73 9.2 34 18.6 102110 63
2003-08-20 10:01 51°10.81 2°26.36 9 42 18.7 102110 63
2003-08-20 10:02 51°10.75 2°25.98 10.1 32 18.7 102110 64
2003-08-20 10:03 51°10.71 2°25.6 10.4 25 18.7 102110 62
2003-08-20 10:04 51°10.72 2°25.21 11.2 18 18.8 102110 62
2003-08-20 10:05 51°10.86 2°24.92 11.3 6 18.9 102120 60
2003-08-20 10:06 51°11.07 2°24.8 10.8 354 18.9 102110 62
2003-08-20 10:07 51°11.29 2°24.79 10.2 351 19 102110 60
2003-08-20 10:08 51°11.5 2°24.81 10.8 355 19 102110 61
2003-08-20 10:09 51°11.71 2°24.86 10.8 353 19.1 102100 60
2003-08-20 10:10 51°11.93 2°24.91 10.2 354 19.1 102110 60
2003-08-20 10:11 51°12.15 2°24.96 10.9 354 19.1 102100 60
2003-08-20 10:12 51°12.36 2°25.02 10.7 350 19.1 102100 61
2003-08-20 10:13 51°12.58 2°25.07 11.3 355 19.1 102100 60
2003-08-20 10:14 51°12.79 2°25.11 10.3 347 19.1 102100 61
2003-08-20 10:15 51°13 2°25.18 10.4 348 19.1 102100 60
2003-08-20 10:16 51°13.14 2°25.23 6.4 341 19.2 102110 60
2003-08-20 10:17 51°13.17 2°25.24 4.4 292 19.2 102120 61
2003-08-20 10:18 51°13.17 2°25.27 3.4 280 19.1 102120 59
2003-08-20 10:19 51°13.18 2°25.31 3.7 276 19.1 102130 60
2003-08-20 10:20 51°13.18 2°25.36 3.5 284 19.1 102120 61
2003-08-20 10:21 51°13.17 2°25.4 4.5 290 19.2 102120 61
2003-08-20 10:22 51°13.17 2°25.44 5.1 282 19.2 102120 61
2003-08-20 10:23 51°13.17 2°25.48 4.1 271 19.1 102120 60
2003-08-20 10:24 51°13.16 2°25.52 3.6 291 19.1 102120 60
2003-08-20 10:25 51°13.16 2°25.56 4.5 282 19.1 102120 61
2003-08-20 10:26 51°13.15 2°25.6 4.6 276 19.1 102120 59
2003-08-20 10:27 51°13.15 2°25.63 4.1 281 19.1 102120 59
2003-08-20 10:28 51°13.15 2°25.67 4.4 273 19.2 102120 62
2003-08-20 10:29 51°13.15 2°25.7 4 288 19.1 102110 61
2003-08-20 10:30 51°13.15 2°25.74 3.7 293 19.1 102120 61
2003-08-20 10:31 51°13.14 2°25.78 3.5 273 19.1 102120 60
2003-08-20 10:32 51°13.14 2°25.81 3.5 280 19.1 102120 61
2003-08-20 10:33 51°13.14 2°25.85 3.9 260 19.1 102120 61
2003-08-20 10:34 51°13.13 2°25.88 4 267 19.1 102120 61
2003-08-20 10:35 51°13.13 2°25.92 5.1 315 19 102120 61
2003-08-20 10:36 51°13.2 2°26.01 7.7 337 19.1 102110 60
2003-08-20 10:37 51°13.31 2°26.18 8.3 332 19.2 102100 60
2003-08-20 10:38 51°13.43 2°26.37 9.1 338 19.2 102100 58
2003-08-20 10:39 51°13.56 2°26.61 9.2 337 19.2 102100 60
2003-08-20 10:40 51°13.7 2°26.87 9.7 338 19.2 102100 60
2003-08-20 10:41 51°13.83 2°27.12 9.2 336 19.2 102100 60
2003-08-20 10:42 51°13.97 2°27.37 9 340 19.2 102100 58
2003-08-20 10:43 51°14.1 2°27.62 9.7 334 19.2 102100 60
2003-08-20 10:44 51°14.24 2°27.87 10.2 342 19.2 102100 61
2003-08-20 10:45 51°14.37 2°28.12 9.1 343 19.2 102090 59
2003-08-20 10:46 51°14.5 2°28.38 9.6 338 19.2 102090 59
2003-08-20 10:47 51°14.64 2°28.63 9.3 339 19.2 102090 58
2003-08-20 10:48 51°14.77 2°28.88 9.4 338 19.2 102090 59
2003-08-20 10:49 51°14.9 2°29.13 8.9 338 19.2 102090 59
2003-08-20 10:50 51°15.05 2°29.36 9 339 19.2 102100 60
2003-08-20 10:51 51°15.2 2°29.59 9.6 343 19.2 102090 60
2003-08-20 10:52 51°15.35 2°29.82 9.4 337 19.2 102100 58
2003-08-20 10:53 51°15.51 2°30.05 9.2 345 19.2 102100 59
2003-08-20 10:54 51°15.66 2°30.27 9.6 344 19.2 102100 62
2003-08-20 10:55 51°15.81 2°30.49 8.7 339 19.2 102090 61
2003-08-20 10:56 51°15.97 2°30.71 9.9 344 19.2 102100 60
2003-08-20 10:57 51°16.13 2°30.92 9.2 341 19.2 102090 58
2003-08-20 10:58 51°16.29 2°31.13 9.6 339 19.2 102090 60
2003-08-20 10:59 51°16.45 2°31.34 10.1 342 19.2 102090 59
2003-08-20 11:00 51°16.61 2°31.56 9.2 339 19.2 102090 57
2003-08-20 11:01 51°16.77 2°31.77 9.9 338 19.2 102090 59
2003-08-20 11:02 51°16.93 2°31.99 9.4 339 19.2 102090 60
2003-08-20 11:03 51°17.08 2°32.21 10 345 19.2 102090 60
2003-08-20 11:04 51°17.24 2°32.42 9.3 339 19.2 102090 59
2003-08-20 11:05 51°17.4 2°32.63 9.6 337 19.2 102090 61
2003-08-20 11:06 51°17.55 2°32.84 8.6 340 19.2 102090 60
2003-08-20 11:07 51°17.7 2°33.05 10 348 19.2 102090 61
2003-08-20 11:08 51°17.86 2°33.26 9.4 344 19.1 102090 59
2003-08-20 11:09 51°18.01 2°33.46 10.1 343 19.2 102090 60
2003-08-20 11:10 51°18.16 2°33.67 9.2 340 19.1 102090 59
2003-08-20 11:11 51°18.32 2°33.87 8.7 344 19.1 102090 59
2003-08-20 11:12 51°18.47 2°34.08 10.1 334 19.2 102090 62
2003-08-20 11:13 51°18.63 2°34.29 10.3 338 19.2 102090 62
2003-08-20 11:14 51°18.78 2°34.49 9.3 339 19.2 102090 61
2003-08-20 11:15 51°18.94 2°34.7 9.3 345 19.1 102100 61
2003-08-20 11:16 51°19.1 2°34.9 9.7 337 19.1 102090 61
2003-08-20 11:17 51°19.27 2°35.07 9.2 336 19.1 102090 61
2003-08-20 11:18 51°19.43 2°35.22 7.1 335 19.1 102090 61
2003-08-20 11:19 51°19.52 2°35.25 6.4 332 19.1 102100 62
2003-08-20 11:20 51°19.57 2°35.23 4.9 338 19.2 102110 60
2003-08-20 11:21 51°19.6 2°35.2 4.2 320 19.2 102100 61
2003-08-20 11:22 51°19.61 2°35.18 4 323 19.3 102110 62
2003-08-20 11:23 51°19.62 2°35.17 4.4 311 19.3 102110 60
2003-08-20 11:24 51°19.63 2°35.16 4.8 295 19.4 102100 61
2003-08-20 11:25 51°19.63 2°35.14 4.2 303 19.3 102110 60
2003-08-20 11:26 51°19.63 2°35.13 4.4 312 19.3 102110 60
2003-08-20 11:27 51°19.63 2°35.11 4.3 296 19.3 102110 62
2003-08-20 11:28 51°19.63 2°35.1 4.8 289 19.2 102110 60
2003-08-20 11:29 51°19.64 2°35.09 4.3 292 19.2 102110 61
2003-08-20 11:30 51°19.64 2°35.07 3.9 291 19.1 102110 60
2003-08-20 11:31 51°19.64 2°35.06 3.3 293 19.1 102110 60
2003-08-20 11:32 51°19.64 2°35.06 4.9 284 19.1 102110 62
2003-08-20 11:33 51°19.65 2°35.06 4.9 266 19.1 102110 60
2003-08-20 11:34 51°19.64 2°35.06 4.6 269 19 102110 61
2003-08-20 11:35 51°19.64 2°35.06 4.8 274 18.9 102110 61
2003-08-20 11:36 51°19.64 2°35.07 4.2 288 18.9 102110 62
2003-08-20 11:37 51°19.64 2°35.08 3.4 290 19 102100 62
2003-08-20 11:38 51°19.64 2°35.09 4.7 292 18.9 102110 62
2003-08-20 11:39 51°19.68 2°35.17 7.9 333 19 102100 61
2003-08-20 11:40 51°19.79 2°35.41 8.8 340 19.1 102090 63
2003-08-20 11:41 51°19.9 2°35.67 8 336 19.1 102090 61
2003-08-20 11:42 51°19.98 2°35.96 7.6 341 19.1 102090 61
2003-08-20 11:43 51°20.05 2°36.26 7.8 335 19.1 102090 60
2003-08-20 11:44 51°20.1 2°36.57 6.4 334 19.1 102090 59
2003-08-20 11:45 51°20.15 2°36.88 8.1 338 19.1 102090 60
2003-08-20 11:46 51°20.18 2°37.2 7.2 338 19.2 102080 60
2003-08-20 11:47 51°20.21 2°37.52 7.5 343 19.2 102090 60
2003-08-20 11:48 51°20.22 2°37.84 8 333 19.2 102090 61
2003-08-20 11:49 51°20.23 2°38.17 8 337 19.2 102090 60
2003-08-20 11:50 51°20.24 2°38.5 8.1 334 19.2 102090 60
2003-08-20 11:51 51°20.25 2°38.83 6.6 332 19.2 102090 59
2003-08-20 11:52 51°20.26 2°39.16 8.6 327 19.1 102090 58
2003-08-20 11:53 51°20.27 2°39.5 8.2 334 19.2 102090 61
2003-08-20 11:54 51°20.27 2°39.83 7.6 338 19.2 102090 60
2003-08-20 11:55 51°20.28 2°40.17 6.5 337 19.2 102090 60
2003-08-20 11:56 51°20.29 2°40.5 6.8 331 19.2 102090 59
2003-08-20 11:57 51°20.3 2°40.83 7.7 331 19.2 102090 58
2003-08-20 11:58 51°20.31 2°41.16 7.5 334 19.2 102090 60
2003-08-20 11:59 51°20.33 2°41.49 7 330 19.2 102090 60
2003-08-20 12:00 51°20.34 2°41.82 7.5 331 19.2 102080 59
2003-08-20 12:01 51°20.36 2°42.15 6.7 340 19.2 102080 58
2003-08-20 12:02 51°20.36 2°42.48 7.9 337 19.3 102080 61
2003-08-20 12:03 51°20.37 2°42.81 8.3 332 19.2 102080 60
2003-08-20 12:04 51°20.38 2°43.15 7.2 330 19.2 102070 60
2003-08-20 12:05 51°20.39 2°43.48 6.5 337 19.2 102070 60
2003-08-20 12:06 51°20.4 2°43.81 6.9 333 19.2 102070 60
2003-08-20 12:07 51°20.42 2°44.14 7.7 340 19.2 102080 60
2003-08-20 12:08 51°20.43 2°44.47 6.9 343 19.2 102080 59
2003-08-20 12:09 51°20.44 2°44.8 7 343 19.2 102080 58
2003-08-20 12:10 51°20.45 2°45.13 8 334 19.3 102080 59
2003-08-20 12:11 51°20.46 2°45.45 6.8 332 19.3 102070 58
2003-08-20 12:12 51°20.45 2°45.64 3.8 267 19.3 102090 60
2003-08-20 12:13 51°20.42 2°45.69 3.4 241 19.2 102090 60
2003-08-20 12:14 51°20.39 2°45.71 3.1 233 19.1 102090 60
2003-08-20 12:15 51°20.37 2°45.73 3 245 19.1 102090 62
2003-08-20 12:16 51°20.34 2°45.74 2.2 252 19.1 102090 62
2003-08-20 12:17 51°20.32 2°45.76 2.4 252 19 102090 61
2003-08-20 12:18 51°20.3 2°45.78 2.5 233 19 102090 62
2003-08-20 12:19 51°20.28 2°45.79 2 256 19.1 102090 64
2003-08-20 12:20 51°20.26 2°45.81 3.5 242 19.1 102090 63
2003-08-20 12:21 51°20.24 2°45.82 2.8 249 19 102090 60
2003-08-20 12:22 51°20.22 2°45.84 1.9 251 19 102090 61
2003-08-20 12:23 51°20.21 2°45.86 1.9 252 19 102080 61
2003-08-20 12:24 51°20.19 2°45.87 2.8 250 18.9 102090 60
2003-08-20 12:25 51°20.17 2°45.89 2 251 18.9 102080 59
2003-08-20 12:26 51°20.15 2°45.9 2.3 252 19 102090 61
2003-08-20 12:27 51°20.13 2°45.92 1.5 253 18.9 102090 60
2003-08-20 12:28 51°20.12 2°45.93 2.6 251 19 102090 61
2003-08-20 12:29 51°20.1 2°45.95 2.4 244 19 102080 60
2003-08-20 12:30 51°20.08 2°45.96 2.9 244 19 102080 60
2003-08-20 12:31 51°20.07 2°45.99 1.7 250 19 102080 59
2003-08-20 12:32 51°20.01 2°46.14 3.6 323 19 102080 60
2003-08-20 12:33 51°19.93 2°46.43 4.9 343 19.2 102080 58
2003-08-20 12:34 51°19.82 2°46.73 5.4 346 19.3 102070 59
2003-08-20 12:35 51°19.7 2°47.01 5.7 341 19.5 102070 59
2003-08-20 12:36 51°19.57 2°47.3 5.7 337 19.6 102070 59
2003-08-20 12:37 51°19.46 2°47.59 5.7 339 19.6 102070 58
2003-08-20 12:38 51°19.34 2°47.88 4.9 344 19.6 102070 58
2003-08-20 12:39 51°19.22 2°48.18 4.7 337 19.6 102070 57
2003-08-20 12:40 51°19.1 2°48.47 5.7 339 19.7 102070 59
2003-08-20 12:41 51°18.99 2°48.77 6 335 19.7 102060 58
2003-08-20 12:42 51°18.88 2°49.06 5.7 342 19.7 102060 59
2003-08-20 12:43 51°18.76 2°49.36 5.8 329 19.7 102060 59
2003-08-20 12:44 51°18.64 2°49.65 4.5 332 19.7 102070 59
2003-08-20 12:45 51°18.51 2°49.94 5.4 339 19.7 102060 57
2003-08-20 12:46 51°18.39 2°50.23 4.7 352 19.7 102070 57
2003-08-20 12:47 51°18.26 2°50.52 5.6 331 19.7 102060 58
2003-08-20 12:48 51°18.15 2°50.77 4.5 308 19.7 102060 59
2003-08-20 12:49 51°18.11 2°50.85 4.9 268 19.7 102060 59
2003-08-20 12:50 51°18.09 2°50.87 3.6 274 19.5 102060 59
2003-08-20 12:51 51°18.07 2°50.89 3.2 285 19.4 102060 60
2003-08-20 12:52 51°18.04 2°50.92 4.1 266 19.4 102060 61
2003-08-20 12:53 51°18.02 2°50.93 3.9 265 19.3 102060 60
2003-08-20 12:54 51°17.99 2°50.95 3.5 277 19.2 102060 60
2003-08-20 12:55 51°17.96 2°50.97 3.7 259 19.3 102060 62
2003-08-20 12:56 51°17.94 2°50.99 2.9 259 19.2 102060 61
2003-08-20 12:57 51°17.92 2°51.01 4.4 267 19.2 102070 62
2003-08-20 12:58 51°17.9 2°51.03 4.5 268 19.2 102070 60
2003-08-20 12:59 51°17.87 2°51.05 4 270 19.2 102070 61
2003-08-20 13:00 51°17.85 2°51.06 4.2 262 19.2 102070 59
2003-08-20 13:01 51°17.83 2°51.08 2.2 258 19.2 102060 61
2003-08-20 13:02 51°17.81 2°51.1 3.1 260 19.2 102070 60
2003-08-20 13:03 51°17.79 2°51.12 3 251 19.2 102060 61
2003-08-20 13:04 51°17.77 2°51.15 4.5 260 19.3 102060 63
2003-08-20 13:05 51°17.75 2°51.17 3 258 19.2 102060 59
2003-08-20 13:06 51°17.72 2°51.19 3 260 19.1 102060 59
2003-08-20 13:07 51°17.69 2°51.25 3.7 319 19.1 102060 59
2003-08-20 13:08 51°17.61 2°51.51 5 333 19.3 102050 60
2003-08-20 13:09 51°17.49 2°51.8 4.6 336 19.4 102060 58
2003-08-20 13:10 51°17.37 2°52.1 4.9 333 19.6 102050 60
2003-08-20 13:11 51°17.23 2°52.39 5.2 330 19.7 102050 58
2003-08-20 13:12 51°17.09 2°52.67 4.9 337 19.8 102050 58
2003-08-20 13:13 51°16.96 2°52.96 7.4 317 19.8 102050 58
2003-08-20 13:14 51°16.83 2°53.24 6.3 325 19.9 102040 58
2003-08-20 13:15 51°16.7 2°53.52 4.7 307 19.8 102040 59
2003-08-20 13:16 51°16.6 2°53.64 2.3 216 19.7 102050 59
2003-08-20 13:17 51°16.52 2°53.63 3 152 19.8 102050 60
2003-08-20 13:18 51°16.47 2°53.6 3.5 148 19.7 102050 58
2003-08-20 13:19 51°16.44 2°53.56 3.9 135 19.6 102050 63
2003-08-20 13:20 51°16.4 2°53.51 4 132 19.5 102050 59
2003-08-20 13:21 51°16.37 2°53.46 4.6 125 19.5 102050 59
2003-08-20 13:22 51°16.34 2°53.4 4.8 106 19.4 102050 59
2003-08-20 13:23 51°16.31 2°53.34 5.7 104 19.4 102050 60
2003-08-20 13:24 51°16.29 2°53.28 4.1 103 19.3 102050 59
2003-08-20 13:25 51°16.26 2°53.22 4.7 99 19.3 102050 61
2003-08-20 13:26 51°16.24 2°53.16 4.3 94 19.3 102040 60
2003-08-20 13:27 51°16.22 2°53.09 3.8 92 19.3 102040 61
2003-08-20 13:28 51°16.21 2°53.03 5.7 86 19.3 102040 62
2003-08-20 13:29 51°16.19 2°52.96 4.9 81 19.2 102040 60
2003-08-20 13:30 51°16.17 2°52.9 3.8 82 19 102040 60
2003-08-20 13:31 51°16.16 2°52.84 3.7 80 19 102040 59
2003-08-20 13:32 51°16.15 2°52.77 4 83 19 102040 60
2003-08-20 13:33 51°16.14 2°52.71 4 69 19 102040 62
2003-08-20 13:34 51°16.12 2°52.64 3.9 78 19 102040 60
2003-08-20 13:35 51°16.1 2°52.58 4 102 19 102040 58
2003-08-20 13:36 51°16.07 2°52.54 2.9 122 19.1 102040 61
2003-08-20 13:37 51°16.04 2°52.51 2 167 19.2 102040 60
2003-08-20 13:38 51°16 2°52.49 2.3 206 19.3 102040 60
2003-08-20 13:39 51°15.97 2°52.5 3.7 224 19.4 102040 61
2003-08-20 13:40 51°15.92 2°52.54 2.7 262 19.3 102030 60
2003-08-20 13:41 51°15.84 2°52.65 3.3 43 19.4 102030 60
2003-08-20 13:42 51°15.69 2°52.85 3 345 19.6 102040 60
2003-08-20 13:43 51°15.53 2°53.07 3.9 337 19.7 102030 58
2003-08-20 13:44 51°15.38 2°53.29 4 330 19.8 102030 58
2003-08-20 13:45 51°15.22 2°53.52 4.1 332 19.9 102020 57
2003-08-20 13:46 51°15.08 2°53.76 4.2 344 20 102020 57
2003-08-20 13:47 51°14.94 2°54 4.6 227 20 102020 57
2003-08-20 13:48 51°14.8 2°54.24 4.4 318 19.9 102020 56
2003-08-20 13:49 51°14.66 2°54.5 4.6 327 19.9 102030 58
2003-08-20 13:50 51°14.53 2°54.74 3.4 324 19.9 102030 56
2003-08-20 13:51 51°14.41 2°54.97 4.2 311 20 102030 57
2003-08-20 13:52 51°14.31 2°55.19 3 314 19.9 102030 57
2003-08-20 13:53 51°14.22 2°55.32 1.2 286 20 102030 59
2003-08-20 13:54 51°14.15 2°55.4 2.6 208 20 102030 58
2003-08-20 13:55 51°14.08 2°55.45 1.6 251 20 102030 59
2003-08-20 13:56 51°14.01 2°55.5 2.1 233 19.9 102030 57
2003-08-20 13:57 51°13.93 2°55.55 0.9 236 19.9 102030 59
2003-08-20 13:58 51°13.86 2°55.61 2.1 246 20 102030 60
2003-08-20 13:59 51°13.79 2°55.66 2 273 20.2 102020 59
2003-08-20 14:00 51°13.73 2°55.74 2.9 256 20.2 102020 57
2003-08-20 14:01 51°13.69 2°55.83 3.2 232 20.2 102020 55
2003-08-20 14:02 51°13.65 2°55.91 3 210 20.1 102020 55
2003-08-20 14:03 51°13.62 2°55.99 2.8 215 20 102020 56
2003-08-20 14:04 51°13.6 2°56.06 3.9 310 20 102020 56